Forest City, North Carolina
Current Conditions -  °F | °C
As of 5:55 PM on Monday 24 Nov 2014 (Local Time) from KFQD Reporting Station
Clear Clear  
Wind Chill: 66°   Ceiling: Unl
Heat Index: 66°   Visibility: 10mi
Dew Point: 53°   Wind: 5mph
Humidity: 64%   Direction: 230°SW
Pressure: 29.8"   Gusts: NA
Location:  35.33°N, 81.86°W
Report Text: KFQD 242255Z AUTO 23004KT 10SM CLR 19/12 A2980 RMK AO2 T01870117
Loading
Personal Weather Stations






























Interactive Weather Map New forecast layout! Learn more

10-Day Weather Forecast

Advertisements
Track Severe Weather on mobile